Time;durP1;ratioP1;P1;durP2;ratioP2;P2;SDS_P1;SDS_P2;PMS_P1;PMS_P2;Temp;Humidity;BMP_temperature;BMP_pressure;BME280_temperature;BME280_humidity;BME280_pressure;Samples;Min_cycle;Max_cycle;Signal;HPM_P1;HPM_P2
2022/01/03 00:00:30;;;;;;;;;;;;;;;1.74;86.70;99681.03;5102561;28;20312;-91
2022/01/03 00:02:56;;;;;;;;;;;;;;;1.75;86.96;99705.41;5111673;28;20068;-90
2022/01/03 00:05:24;;;;;;;;;;;;;;;1.71;86.86;99696.75;5100769;28;19919;-90
2022/01/03 00:07:55;;;;;;;;;;;;;;;1.70;86.94;99696.75;5117714;28;20283;-89
2022/01/03 00:10:20;;;;;;;;;;;;;;;1.71;86.78;99685.41;5114293;28;20328;-91
2022/01/03 00:12:49;;;;;;;;;;;;;;;1.78;86.73;99687.09;5116526;28;19916;-90
2022/01/03 00:15:16;;;;;;;;;;;;;;;1.73;86.50;99686.28;5103150;28;19915;-88
2022/01/03 00:17:42;;;;;;;;;;;;;;;1.73;86.54;99681.06;5106072;28;19924;-88
2022/01/03 00:20:08;;;;;;;;;;;;;;;1.81;86.59;99674.00;5108618;28;19923;-89
2022/01/03 00:22:39;;;;;;;;;;;;;;;1.79;86.42;99670.56;5115361;28;19924;-88
2022/01/03 00:25:05;;;;;;;;;;;;;;;1.72;85.85;99681.94;5113181;28;19969;-90
2022/01/03 00:27:42;;;;;;;;;;;;;;;1.84;86.13;99683.59;5108128;28;19927;-90
2022/01/03 00:30:08;;;;;;;;;;;;;;;1.83;86.42;99689.69;5113910;28;19927;-91
2022/01/03 00:32:36;;;;;;;;;;;;;;;1.81;86.53;99693.16;5115086;28;19920;-90
2022/01/03 00:35:07;;;;;;;;;;;;;;;1.86;86.51;99689.66;5116075;28;19920;-89
2022/01/03 00:37:34;;;;;;;;;;;;;;;1.92;86.29;99690.47;5114988;28;19920;-90
2022/01/03 00:40:00;;;;;;;;;;;;;;;1.92;85.65;99693.06;5114378;28;19924;-88
2022/01/03 04:19:09;;;;;;;;;;;;;;;3.39;98.43;99739.31;5448020;23;20897;-93
2022/01/03 04:21:54;;;;;;;;;;;;;;;3.17;97.83;99730.91;4977692;28;19922;-92
2022/01/03 04:40:38;;;;;;;;;;;;;;;2.81;99.67;99719.13;4820843;29;20413;-94
2022/01/03 04:43:25;;;;;;;;;;;;;;;2.73;100.00;99722.72;4794107;29;19924;-92
2022/01/03 04:45:54;;;;;;;;;;;;;;;2.81;100.00;99719.13;4808458;29;19976;-92
2022/01/03 04:48:22;;;;;;;;;;;;;;;2.76;100.00;99724.47;4818787;29;20402;-87
2022/01/03 04:50:48;;;;;;;;;;;;;;;2.65;100.00;99731.53;4841107;28;19918;-87
2022/01/03 04:53:13;;;;;;;;;;;;;;;2.75;100.00;99719.25;4961377;28;19923;-91
2022/01/03 04:55:41;;;;;;;;;;;;;;;2.62;100.00;99727.22;4962173;28;19918;-89
2022/01/03 04:58:06;;;;;;;;;;;;;;;2.58;100.00;99727.28;4965338;28;19919;-90
2022/01/03 05:00:31;;;;;;;;;;;;;;;2.51;100.00;99722.09;4965604;28;19929;-90
2022/01/03 05:02:57;;;;;;;;;;;;;;;2.47;100.00;99732.63;4964142;28;19950;-88
2022/01/03 05:05:22;;;;;;;;;;;;;;;2.36;100.00;99731.00;4965066;28;20009;-88
2022/01/03 05:07:48;;;;;;;;;;;;;;;2.35;100.00;99734.47;4964976;28;20324;-88
2022/01/03 05:10:13;;;;;;;;;;;;;;;2.24;100.00;99735.47;4964822;28;20074;-89
2022/01/03 05:12:41;;;;;;;;;;;;;;;2.21;100.00;99736.38;4964767;28;20452;-89
2022/01/03 05:15:07;;;;;;;;;;;;;;;2.22;100.00;99737.22;4964707;28;20366;-89
2022/01/03 05:17:32;;;;;;;;;;;;;;;2.17;100.00;99739.88;4963547;28;20035;-89
2022/01/03 05:20:00;;;;;;;;;;;;;;;2.09;100.00;99737.34;4965111;28;19933;-92
2022/01/03 05:22:26;;;;;;;;;;;;;;;2.05;99.79;99733.03;4965688;28;20009;-89
2022/01/03 05:24:51;;;;;;;;;;;;;;;2.00;99.32;99737.44;4964227;28;19958;-88
2022/01/03 05:27:19;;;;;;;;;;;;;;;1.96;98.92;99740.94;4963141;28;19992;-92
2022/01/03 08:59:25;;;;;;;;;;;;;;;4.60;94.63;99683.09;4968380;28;20084;-86
2022/01/03 09:01:51;;;;;;;;;;;;;;;4.68;94.27;99693.44;4985542;28;19929;-86
2022/01/03 09:04:16;;;;;;;;;;;;;;;4.65;93.84;99685.63;4984637;28;20013;-86
2022/01/03 09:06:41;;;;;;;;;;;;;;;4.68;93.07;99677.69;4984277;28;20284;-87
2022/01/03 09:09:09;;;;;;;;;;;;;;;4.68;92.55;99672.44;4984415;28;19923;-87
2022/01/03 09:11:37;;;;;;;;;;;;;;;4.75;92.13;99670.53;4984220;28;19990;-89
2022/01/03 09:14:02;;;;;;;;;;;;;;;4.76;91.72;99669.66;4984196;28;19918;-90
2022/01/03 09:16:30;;;;;;;;;;;;;;;4.80;91.53;99661.66;4983994;28;19985;-87
2022/01/03 09:18:55;;;;;;;;;;;;;;;4.85;91.15;99667.69;4983963;28;19918;-88
2022/01/03 09:21:20;;;;;;;;;;;;;;;4.87;90.81;99673.78;4983947;28;19944;-88
2022/01/03 09:23:50;;;;;;;;;;;;;;;4.94;90.63;99673.63;4985333;28;19917;-90
2022/01/03 09:28:59;;;;;;;;;;;;;;;5.02;89.85;99671.72;4983634;28;20399;-91
2022/01/03 09:31:28;;;;;;;;;;;;;;;5.05;89.62;99667.25;4983690;28;19973;-90
2022/01/03 09:33:55;;;;;;;;;;;;;;;5.04;89.24;99667.28;4985065;28;19925;-88
2022/01/03 09:36:21;;;;;;;;;;;;;;;5.08;88.76;99674.22;4984157;28;19922;-89
2022/01/03 09:38:46;;;;;;;;;;;;;;;5.13;88.53;99672.34;4983853;28;19948;-87
2022/01/03 09:41:13;;;;;;;;;;;;;;;5.17;88.42;99668.75;4983043;28;20397;-87
2022/01/03 09:43:55;;;;;;;;;;;;;;;5.19;88.19;99677.44;4982213;28;19924;-88
2022/01/03 09:46:20;;;;;;;;;;;;;;;5.18;87.97;99669.59;4982372;28;19929;-86
2022/01/03 09:48:51;;;;;;;;;;;;;;;5.18;88.05;99674.84;4983469;28;19918;-87
2022/01/03 09:51:17;;;;;;;;;;;;;;;5.23;87.90;99679.13;4983527;28;19918;-88
2022/01/03 09:53:42;;;;;;;;;;;;;;;5.27;87.91;99680.75;4983333;28;19948;-88
2022/01/03 09:56:07;;;;;;;;;;;;;;;5.28;87.84;99664.13;4999446;28;19972;-87
2022/01/03 09:58:33;;;;;;;;;;;;;;;5.25;87.80;99672.06;4981630;28;19952;-88
2022/01/03 10:01:01;;;;;;;;;;;;;;;5.31;87.88;99680.69;4983200;28;19926;-88
2022/01/03 10:03:27;;;;;;;;;;;;;;;5.37;87.77;99680.56;4983539;28;19922;-87
2022/01/03 10:05:52;;;;;;;;;;;;;;;5.35;87.79;99674.47;4983031;28;19941;-88
2022/01/03 10:08:18;;;;;;;;;;;;;;;5.38;87.59;99669.16;4982959;28;19921;-87
2022/01/03 10:10:44;;;;;;;;;;;;;;;5.42;87.52;99673.41;4983517;28;19984;-88
2022/01/03 10:13:11;;;;;;;;;;;;;;;5.42;87.35;99660.28;4981661;28;19993;-88
2022/01/03 10:15:36;;;;;;;;;;;;;;;5.39;87.21;99665.59;4982749;28;20286;-89
2022/01/03 10:18:02;;;;;;;;;;;;;;;5.49;87.33;99672.41;4983280;28;19922;-88
2022/01/03 10:20:27;;;;;;;;;;;;;;;5.52;87.34;99668.81;4999419;28;19922;-87
2022/01/03 10:23:06;;;;;;;;;;;;;;;5.51;87.17;99662.69;4981986;28;19926;-87
2022/01/03 10:25:32;;;;;;;;;;;;;;;5.52;87.38;99660.94;4999108;28;19922;-89
2022/01/03 10:28:03;;;;;;;;;;;;;;;5.54;87.35;99656.53;4981735;28;19949;-89
2022/01/03 10:30:31;;;;;;;;;;;;;;;5.60;87.40;99641.44;4982317;28;19977;-86
2022/01/03 10:32:56;;;;;;;;;;;;;;;5.66;87.66;99642.19;4982969;28;20408;-90
2022/01/03 10:35:21;;;;;;;;;;;;;;;5.67;87.73;99634.28;4998752;28;19918;-86
2022/01/03 10:37:48;;;;;;;;;;;;;;;5.75;88.01;99639.34;4982825;28;19925;-88
2022/01/03 10:40:28;;;;;;;;;;;;;;;5.78;88.22;99640.13;4983477;28;19925;-90
2022/01/03 10:42:57;;;;;;;;;;;;;;;5.79;88.36;99635.72;4997880;28;19924;-86
2022/01/03 10:45:33;;;;;;;;;;;;;;;5.79;88.48;99628.72;4983584;28;20015;-86
2022/01/03 10:48:00;;;;;;;;;;;;;;;5.82;88.61;99623.38;4981950;28;19922;-87
2022/01/03 10:50:26;;;;;;;;;;;;;;;5.91;88.69;99616.16;4997348;28;19960;-86
2022/01/03 10:52:51;;;;;;;;;;;;;;;5.90;88.45;99620.50;4982186;28;19921;-87
2022/01/03 10:55:33;;;;;;;;;;;;;;;4.80;86.00;99630.16;4982297;28;19921;-86
2022/01/03 10:58:03;;;;;;;;;;;;;;;3.97;86.23;99630.06;4980767;28;19932;-89
2022/01/03 11:00:31;;;;;;;;;;;;;;;3.72;86.63;99623.53;4981537;28;19926;-87
2022/01/03 11:03:07;;;;;;;;;;;;;;;3.48;86.63;99624.81;4982573;28;19918;-86
2022/01/03 11:05:39;;;;;;;;;;;;;;;3.27;87.05;99616.41;4981980;28;19918;-87
2022/01/03 11:10:45;;;;;;;;;;;;;;;3.12;88.07;99593.09;4983107;28;20383;-86
2022/01/03 11:13:14;;;;;;;;;;;;;;;2.98;88.33;99599.38;4980549;28;19918;-88
2022/01/03 11:15:49;;;;;;;;;;;;;;;2.90;88.67;99590.78;4997549;28;20190;-88
2022/01/03 11:18:16;;;;;;;;;;;;;;;2.86;88.95;99591.72;4981834;28;20024;-86
2022/01/03 11:20:42;;;;;;;;;;;;;;;2.76;89.13;99591.00;4981851;28;19993;-86
2022/01/03 11:23:08;;;;;;;;;;;;;;;2.68;89.28;99590.22;4982249;28;19918;-86
2022/01/03 11:25:34;;;;;;;;;;;;;;;2.62;89.20;99596.41;4981535;28;20095;-87
2022/01/03 11:28:00;;;;;;;;;;;;;;;2.61;89.09;99594.69;4981766;28;20012;-86
2022/01/03 11:30:26;;;;;;;;;;;;;;;2.58;89.25;99589.47;4997676;28;19994;-86
2022/01/03 11:32:52;;;;;;;;;;;;;;;2.51;89.57;99587.84;4983105;28;19917;-87
2022/01/03 11:35:17;;;;;;;;;;;;;;;2.41;89.78;99571.41;4981488;28;19965;-86
2022/01/03 11:37:45;;;;;;;;;;;;;;;2.44;90.29;99566.16;4981318;28;19926;-87
2022/01/03 11:40:12;;;;;;;;;;;;;;;2.37;90.36;99559.25;4996906;28;20431;-88
2022/01/03 11:42:37;;;;;;;;;;;;;;;2.39;90.35;99546.16;4980186;28;19949;-87
2022/01/03 11:45:02;;;;;;;;;;;;;;;2.30;90.51;99550.63;4981560;28;20385;-88
2022/01/03 11:47:29;;;;;;;;;;;;;;;2.28;90.50;99534.09;4981324;28;19922;-86
2022/01/03 11:49:54;;;;;;;;;;;;;;;2.30;90.48;99542.78;4981176;28;19919;-88
2022/01/03 11:52:20;;;;;;;;;;;;;;;2.23;90.71;99548.97;4982969;28;19924;-86
2022/01/03 11:54:46;;;;;;;;;;;;;;;2.20;90.73;99546.38;4982606;28;19922;-89
2022/01/03 11:57:19;;;;;;;;;;;;;;;2.20;90.71;99538.53;4979616;28;19960;-88
2022/01/03 12:05:39;;;;;;;;;;;;;;;2.07;90.38;99523.91;4984618;28;20444;-88
2022/01/03 12:08:04;;;;;;;;;;;;;;;2.10;90.64;99516.03;5000823;28;19918;-88
2022/01/03 12:10:43;;;;;;;;;;;;;;;2.08;90.62;99515.19;4985066;28;19988;-88
2022/01/03 12:13:08;;;;;;;;;;;;;;;2.07;90.31;99522.16;4984034;28;20310;-88
2022/01/03 12:15:36;;;;;;;;;;;;;;;1.99;90.23;99511.81;4985069;28;19922;-85
2022/01/03 12:18:01;;;;;;;;;;;;;;;2.07;90.18;99509.09;4986152;28;19918;-87
2022/01/03 12:20:44;;;;;;;;;;;;;;;1.99;90.45;99514.44;4986249;28;19979;-86
2022/01/03 12:23:09;;;;;;;;;;;;;;;2.06;90.52;99507.38;4985140;28;19918;-85
2022/01/03 12:25:36;;;;;;;;;;;;;;;2.00;90.35;99505.69;4985103;28;19929;-87
2022/01/03 12:28:03;;;;;;;;;;;;;;;1.99;90.09;99506.59;4984769;28;20358;-85
2022/01/03 12:30:35;;;;;;;;;;;;;;;1.95;89.83;99494.44;4984818;28;19928;-88
2022/01/03 12:33:07;;;;;;;;;;;;;;;1.96;89.94;99500.50;4985808;28;19918;-86
2022/01/03 12:35:37;;;;;;;;;;;;;;;1.93;89.82;99496.22;5000032;28;19922;-89
2022/01/03 12:38:03;;;;;;;;;;;;;;;1.91;90.07;99497.09;5000200;28;19918;-85
2022/01/03 12:40:30;;;;;;;;;;;;;;;1.97;90.23;99497.88;4985830;28;19922;-86
2022/01/03 12:43:00;;;;;;;;;;;;;;;1.88;90.32;99490.16;4983749;28;19922;-88
2022/01/03 12:45:25;;;;;;;;;;;;;;;1.89;90.79;99477.97;4983959;28;19926;-88
2022/01/03 12:47:51;;;;;;;;;;;;;;;1.95;90.91;99472.66;4984589;28;20301;-88
2022/01/03 12:50:20;;;;;;;;;;;;;;;2.09;93.23;99480.31;4985026;28;19922;-86
2022/01/03 12:52:46;;;;;;;;;;;;;;;2.85;98.39;99464.38;4985001;28;19969;-88
2022/01/03 12:55:31;;;;;;;;;;;;;;;3.36;100.00;99459.09;4984872;28;20376;-87
2022/01/03 12:57:56;;;;;;;;;;;;;;;3.71;100.00;99451.47;4983253;28;20044;-86
2022/01/03 13:00:40;;;;;;;;;;;;;;;3.91;100.00;99436.19;4985605;28;20016;-86
2022/01/03 13:03:24;;;;;;;;;;;;;;;4.17;100.00;99427.75;4984809;28;19973;-85
2022/01/03 13:06:21;;;;;;;;;;;;;;;4.31;100.00;99421.34;4984280;28;20341;-85
2022/01/03 13:08:55;;;;;;;;;;;;;;;4.36;100.00;99401.97;4957472;28;20279;-89
2022/01/03 13:11:21;;;;;;;;;;;;;;;4.42;100.00;99400.97;4985515;28;20383;-87
2022/01/03 13:13:47;;;;;;;;;;;;;;;4.46;100.00;99399.13;4982617;28;19917;-86
2022/01/03 13:16:16;;;;;;;;;;;;;;;4.37;100.00;99392.31;4999350;28;20292;-86
2022/01/03 13:18:49;;;;;;;;;;;;;;;4.29;100.00;99386.41;4983906;28;19914;-88
2022/01/03 13:21:15;;;;;;;;;;;;;;;4.22;100.00;99397.94;4984444;28;19918;-90
2022/01/03 13:23:53;;;;;;;;;;;;;;;4.14;100.00;99388.47;4983542;28;19918;-87
2022/01/03 13:26:22;;;;;;;;;;;;;;;4.06;100.00;99381.69;4983359;28;19930;-87
2022/01/03 13:28:48;;;;;;;;;;;;;;;4.08;100.00;99383.38;4994993;28;20009;-86
2022/01/03 13:31:14;;;;;;;;;;;;;;;4.18;100.00;99384.91;4983662;28;19977;-86
2022/01/03 13:33:39;;;;;;;;;;;;;;;4.29;100.00;99396.88;4984524;28;19926;-89
2022/01/03 13:36:05;;;;;;;;;;;;;;;4.47;100.00;99391.22;4984903;28;19928;-89
2022/01/03 13:38:30;;;;;;;;;;;;;;;4.65;100.00;99387.28;4982553;28;19925;-86
2022/01/03 13:41:12;;;;;;;;;;;;;;;4.91;100.00;99378.75;4984627;28;19928;-88
2022/01/03 13:43:41;;;;;;;;;;;;;;;5.18;100.00;99375.41;4983099;28;19988;-87
2022/01/03 13:51:16;;;;;;;;;;;;;;;5.65;100.00;99381.09;4984058;28;19949;-90
2022/01/03 13:53:51;;;;;;;;;;;;;;;5.74;100.00;99372.06;4982340;28;19922;-89
2022/01/03 13:56:17;;;;;;;;;;;;;;;5.80;100.00;99364.00;4982642;28;19922;-90
2022/01/03 13:58:44;;;;;;;;;;;;;;;5.86;100.00;99363.81;4982328;28;19930;-90
2022/01/03 14:01:09;;;;;;;;;;;;;;;5.95;100.00;99360.91;4982740;28;19925;-88
2022/01/03 14:03:36;;;;;;;;;;;;;;;6.04;100.00;99361.56;4983970;28;20440;-90
2022/01/03 14:06:13;;;;;;;;;;;;;;;6.11;100.00;99368.34;4982722;28;19930;-87
2022/01/03 14:08:39;;;;;;;;;;;;;;;6.16;100.00;99367.31;4984684;28;20012;-88
2022/01/03 14:11:04;;;;;;;;;;;;;;;6.23;100.00;99362.72;4983147;28;20009;-90
2022/01/03 14:13:29;;;;;;;;;;;;;;;6.30;100.00;99351.09;4981308;28;20009;-87
2022/01/03 14:16:06;;;;;;;;;;;;;;;6.33;100.00;99343.09;4982165;28;20408;-87
2022/01/03 14:18:32;;;;;;;;;;;;;;;6.38;100.00;99340.28;4980731;28;19922;-88
2022/01/03 14:21:24;;;;;;;;;;;;;;;6.44;100.00;99337.47;4998343;28;19918;-86
2022/01/03 14:23:54;;;;;;;;;;;;;;;6.50;100.00;99345.16;4989492;28;19922;-87
2022/01/03 14:26:20;;;;;;;;;;;;;;;6.04;100.00;99345.78;4981995;28;20370;-86
2022/01/03 14:28:46;;;;;;;;;;;;;;;4.57;100.00;99343.78;4979078;28;20289;-90
2022/01/03 14:31:15;;;;;;;;;;;;;;;3.97;100.00;99346.06;4981328;28;19926;-88
2022/01/03 14:33:40;;;;;;;;;;;;;;;3.75;100.00;99337.81;4980310;28;19922;-88
2022/01/03 14:36:13;;;;;;;;;;;;;;;3.57;100.00;99337.31;4982015;28;20380;-92
2022/01/03 14:38:40;;;;;;;;;;;;;;;3.30;100.00;99343.13;4984105;28;19980;-90
2022/01/03 14:41:15;;;;;;;;;;;;;;;3.18;100.00;99333.78;4981740;28;20286;-88
2022/01/03 14:43:40;;;;;;;;;;;;;;;2.96;100.00;99336.81;4989658;28;19922;-87
2022/01/03 14:46:07;;;;;;;;;;;;;;;2.88;100.00;99329.09;4974806;28;19929;-91
2022/01/03 14:48:33;;;;;;;;;;;;;;;2.90;100.00;99334.31;4984195;28;19933;-87
2022/01/03 14:51:11;;;;;;;;;;;;;;;2.78;100.00;99324.09;4993848;28;19933;-89
2022/01/03 14:53:39;;;;;;;;;;;;;;;2.74;99.86;99318.03;4984554;28;19963;-86
2022/01/03 14:56:05;;;;;;;;;;;;;;;2.62;98.82;99307.81;4992615;28;19932;-87
2022/01/03 14:58:30;;;;;;;;;;;;;;;2.53;97.81;99308.81;5008765;28;19922;-88
2022/01/03 15:00:56;;;;;;;;;;;;;;;2.34;96.92;99298.66;4993578;28;19929;-88
2022/01/03 15:03:26;;;;;;;;;;;;;;;2.41;96.47;99299.44;4991494;28;19963;-91
2022/01/03 15:05:51;;;;;;;;;;;;;;;2.29;95.96;99290.03;4993294;28;20019;-88
2022/01/03 15:08:20;;;;;;;;;;;;;;;2.28;95.24;99290.06;4993954;28;20011;-90
2022/01/03 15:10:45;;;;;;;;;;;;;;;2.25;94.42;99291.00;5010067;28;19925;-88
2022/01/03 15:13:11;;;;;;;;;;;;;;;2.11;94.50;99285.13;4993327;28;20003;-87
2022/01/03 15:15:39;;;;;;;;;;;;;;;2.03;94.20;99297.44;4998426;28;20006;-87
2022/01/03 15:18:05;;;;;;;;;;;;;;;1.94;93.99;99288.00;5001337;28;19918;-90
2022/01/03 15:20:31;;;;;;;;;;;;;;;1.97;93.78;99277.50;5000880;28;19928;-88
2022/01/03 15:22:57;;;;;;;;;;;;;;;1.89;93.53;99277.63;5000790;28;20769;-87
2022/01/03 15:25:24;;;;;;;;;;;;;;;1.91;93.22;99277.59;5015616;28;20392;-89
2022/01/03 15:27:55;;;;;;;;;;;;;;;1.86;92.24;99284.66;4999241;28;20277;-88
2022/01/03 15:30:23;;;;;;;;;;;;;;;1.63;92.10;99275.44;5001049;28;19936;-90
2022/01/03 15:32:49;;;;;;;;;;;;;;;1.55;91.58;99278.16;5000139;28;20016;-88
2022/01/03 15:35:14;;;;;;;;;;;;;;;1.54;91.36;99283.38;5000232;28;19972;-88
2022/01/03 15:37:40;;;;;;;;;;;;;;;1.43;91.34;99265.25;4997764;28;19921;-88
2022/01/03 15:40:06;;;;;;;;;;;;;;;1.36;91.09;99263.63;4993243;28;19980;-89
2022/01/03 15:42:31;;;;;;;;;;;;;;;1.56;93.58;99261.56;4993090;28;19930;-88
2022/01/03 15:44:56;;;;;;;;;;;;;;;1.79;96.86;99263.00;4997547;28;20017;-87
2022/01/03 15:47:22;;;;;;;;;;;;;;;2.10;100.00;99262.50;5001387;28;19925;-88
2022/01/03 15:49:47;;;;;;;;;;;;;;;2.30;100.00;99257.78;4994357;28;19922;-88
2022/01/03 15:52:14;;;;;;;;;;;;;;;2.35;100.00;99253.34;4999886;28;20196;-89
2022/01/03 15:54:40;;;;;;;;;;;;;;;2.41;100.00;99252.38;4998336;28;20282;-89
2022/01/03 15:57:05;;;;;;;;;;;;;;;2.51;100.00;99253.91;4998032;28;19917;-89
2022/01/03 15:59:30;;;;;;;;;;;;;;;2.56;100.00;99245.13;4998897;28;19980;-87
2022/01/03 16:01:56;;;;;;;;;;;;;;;2.58;100.00;99259.03;4999594;28;19922;-87
2022/01/03 16:04:22;;;;;;;;;;;;;;;2.64;100.00;99248.47;5000318;28;19914;-88
2022/01/03 16:06:50;;;;;;;;;;;;;;;2.65;100.00;99244.94;4995550;28;19921;-88
2022/01/03 16:09:19;;;;;;;;;;;;;;;2.70;100.00;99241.34;4996510;28;19929;-87
2022/01/03 16:11:45;;;;;;;;;;;;;;;2.75;100.00;99241.25;4997756;28;19918;-87
2022/01/03 16:14:12;;;;;;;;;;;;;;;2.81;100.00;99229.78;5000144;28;20277;-87
2022/01/03 16:16:38;;;;;;;;;;;;;;;2.79;100.00;99226.34;5000610;28;19922;-88
2022/01/03 16:19:05;;;;;;;;;;;;;;;2.85;100.00;99210.53;5001051;28;19949;-87
2022/01/03 16:21:31;;;;;;;;;;;;;;;2.87;100.00;99209.63;4999936;28;19937;-88
2022/01/03 16:23:56;;;;;;;;;;;;;;;2.85;100.00;99189.59;5000583;28;19922;-87
2022/01/03 16:26:21;;;;;;;;;;;;;;;2.92;100.00;99196.44;5000300;28;19921;-89
2022/01/03 16:28:46;;;;;;;;;;;;;;;2.90;100.00;99188.63;4998019;28;20403;-88
2022/01/03 16:31:12;;;;;;;;;;;;;;;2.92;100.00;99185.97;4998545;28;20269;-88
2022/01/03 16:33:37;;;;;;;;;;;;;;;2.97;100.00;99189.34;4998225;28;20372;-88
2022/01/03 16:36:05;;;;;;;;;;;;;;;3.01;100.00;99183.13;5004855;28;19956;-90
2022/01/03 16:38:30;;;;;;;;;;;;;;;3.01;100.00;99180.53;4997969;28;19941;-88
2022/01/03 16:40:56;;;;;;;;;;;;;;;3.02;100.00;99182.25;4996233;28;20368;-89
2022/01/03 16:43:21;;;;;;;;;;;;;;;3.03;100.00;99163.06;4997146;28;19925;-90
2022/01/03 16:45:47;;;;;;;;;;;;;;;3.09;100.00;99164.66;5005669;28;19921;-89
2022/01/03 16:48:12;;;;;;;;;;;;;;;3.12;100.00;99161.13;4997748;28;19922;-88
2022/01/03 16:50:39;;;;;;;;;;;;;;;3.10;100.00;99163.78;5000549;28;20057;-89
2022/01/03 16:53:04;;;;;;;;;;;;;;;3.16;100.00;99158.41;4997783;28;19921;-89
2022/01/03 16:55:30;;;;;;;;;;;;;;;3.13;100.00;99161.09;5003602;28;19918;-90
2022/01/03 16:57:56;;;;;;;;;;;;;;;3.17;100.00;99156.63;5003415;28;19918;-91
2022/01/03 17:00:24;;;;;;;;;;;;;;;3.17;100.00;99154.88;5001991;28;20064;-89
2022/01/03 17:02:51;;;;;;;;;;;;;;;3.18;100.00;99146.13;5019889;28;19922;-87
2022/01/03 17:05:16;;;;;;;;;;;;;;;3.21;100.00;99146.06;5004044;28;20285;-88
2022/01/03 17:07:44;;;;;;;;;;;;;;;3.25;100.00;99137.22;5002131;28;19924;-88
2022/01/03 17:10:12;;;;;;;;;;;;;;;3.28;100.00;99131.06;5017171;28;20654;-89
2022/01/03 17:12:38;;;;;;;;;;;;;;;3.28;100.00;99131.06;5001984;28;19917;-89
2022/01/03 17:15:04;;;;;;;;;;;;;;;3.32;100.00;99127.47;5019101;28;20016;-90
2022/01/03 17:17:32;;;;;;;;;;;;;;;3.35;100.00;99122.19;5004550;28;20059;-91
2022/01/03 17:19:59;;;;;;;;;;;;;;;3.38;100.00;99119.47;5003460;28;19925;-90
2022/01/03 17:22:25;;;;;;;;;;;;;;;3.37;100.00;99124.75;5002952;28;19918;-88
2022/01/03 17:24:50;;;;;;;;;;;;;;;3.41;100.00;99118.53;5002170;28;19925;-88
2022/01/03 17:27:15;;;;;;;;;;;;;;;3.42;100.00;99113.25;5001850;28;20066;-90
2022/01/03 17:29:49;;;;;;;;;;;;;;;3.43;100.00;99114.09;5002715;28;19989;-87
2022/01/03 17:32:15;;;;;;;;;;;;;;;3.47;100.00;99099.19;4996315;28;19922;-89
2022/01/03 17:34:41;;;;;;;;;;;;;;;3.44;100.00;99103.59;5000372;28;21789;-91
2022/01/03 17:37:08;;;;;;;;;;;;;;;3.51;100.00;99103.44;5002981;28;19922;-87
2022/01/03 17:39:36;;;;;;;;;;;;;;;3.48;100.00;99099.16;5001893;28;19918;-91
2022/01/03 17:42:02;;;;;;;;;;;;;;;3.57;100.00;99087.56;5003065;28;19925;-88
2022/01/03 17:44:27;;;;;;;;;;;;;;;3.59;99.65;99088.38;5011189;28;20289;-89
2022/01/03 17:46:53;;;;;;;;;;;;;;;3.59;99.08;99076.16;5005599;28;19925;-88
2022/01/03 17:49:19;;;;;;;;;;;;;;;3.61;98.62;99087.47;5001026;28;20361;-88
2022/01/03 17:51:44;;;;;;;;;;;;;;;3.65;97.96;99085.63;5000801;28;20012;-89
2022/01/03 17:54:10;;;;;;;;;;;;;;;3.62;97.19;99077.84;5000271;28;20380;-90
2022/01/03 17:56:35;;;;;;;;;;;;;;;3.67;96.43;99075.09;5003670;28;20365;-89
2022/01/03 17:59:00;;;;;;;;;;;;;;;3.74;95.83;99081.91;5001358;28;19925;-90
2022/01/03 18:01:26;;;;;;;;;;;;;;;3.68;95.15;99074.22;5003415;28;19918;-89
2022/01/03 18:03:51;;;;;;;;;;;;;;;3.81;94.91;99066.00;5002920;28;19926;-90
2022/01/03 18:06:19;;;;;;;;;;;;;;;3.85;94.34;99068.53;5003535;28;19917;-90
2022/01/03 18:08:45;;;;;;;;;;;;;;;3.85;94.05;99065.91;5002773;28;19917;-89
2022/01/03 18:11:12;;;;;;;;;;;;;;;3.84;93.23;99067.66;5002895;28;19941;-90
2022/01/03 18:13:38;;;;;;;;;;;;;;;3.84;92.74;99069.41;5000814;28;20016;-89
2022/01/03 18:16:03;;;;;;;;;;;;;;;3.87;92.10;99051.84;5002482;28;19972;-91
2022/01/03 18:18:29;;;;;;;;;;;;;;;3.82;91.75;99054.59;4998950;28;19921;-91
2022/01/03 18:20:54;;;;;;;;;;;;;;;3.92;91.19;99059.59;4999629;28;20352;-89
2022/01/03 18:23:20;;;;;;;;;;;;;;;3.87;90.62;99038.75;5001639;28;19925;-89
2022/01/03 18:25:45;;;;;;;;;;;;;;;3.88;90.27;99035.22;5003162;28;20007;-90
2022/01/03 18:28:10;;;;;;;;;;;;;;;3.94;89.95;99039.41;5001468;28;20467;-89
2022/01/03 18:30:36;;;;;;;;;;;;;;;3.93;89.49;99030.72;4998811;28;20355;-90
2022/01/03 18:33:03;;;;;;;;;;;;;;;3.91;89.10;99032.53;5003416;28;20339;-89
2022/01/03 18:35:29;;;;;;;;;;;;;;;3.92;88.85;99023.75;5007820;28;20297;-89
2022/01/03 18:37:54;;;;;;;;;;;;;;;3.96;88.52;99029.78;5000909;28;19928;-89
2022/01/03 18:40:22;;;;;;;;;;;;;;;3.99;88.12;99019.22;5000875;28;20013;-89
2022/01/03 18:42:47;;;;;;;;;;;;;;;4.00;87.87;99018.28;5001464;28;19944;-89
2022/01/03 18:45:13;;;;;;;;;;;;;;;4.00;87.80;99005.19;5002608;28;20368;-91
2022/01/03 18:47:38;;;;;;;;;;;;;;;4.05;87.84;99008.53;5000807;28;19980;-88
2022/01/03 18:50:07;;;;;;;;;;;;;;;4.07;87.54;99006.75;4999943;28;20692;-89
2022/01/03 18:52:32;;;;;;;;;;;;;;;4.07;87.49;99008.47;5015062;28;19926;-88
2022/01/03 18:54:58;;;;;;;;;;;;;;;4.09;87.37;99002.31;5000463;28;20336;-89
2022/01/03 18:57:24;;;;;;;;;;;;;;;4.12;87.29;98999.59;5000870;28;20396;-89
2022/01/03 18:59:50;;;;;;;;;;;;;;;4.14;87.27;98992.53;5000195;28;19928;-90
2022/01/03 19:02:15;;;;;;;;;;;;;;;4.13;87.15;98990.84;5009010;28;19929;-90
2022/01/03 19:04:41;;;;;;;;;;;;;;;4.15;86.91;98994.25;5000062;28;19917;-89
2022/01/03 19:07:06;;;;;;;;;;;;;;;4.18;86.78;98986.31;5001371;28;19922;-89
2022/01/03 19:09:32;;;;;;;;;;;;;;;4.16;86.50;98980.25;5001020;28;20380;-88
2022/01/03 19:11:57;;;;;;;;;;;;;;;4.21;86.36;98977.47;5001212;28;19962;-88
2022/01/03 19:14:26;;;;;;;;;;;;;;;4.21;86.27;98971.38;5000937;28;19925;-88
2022/01/03 19:16:55;;;;;;;;;;;;;;;4.22;86.21;98963.47;5002537;28;19925;-89
2022/01/03 19:19:21;;;;;;;;;;;;;;;4.23;86.03;98970.44;5000439;28;20293;-87
2022/01/03 19:21:46;;;;;;;;;;;;;;;4.29;86.13;98956.25;5000421;28;19917;-89
2022/01/03 19:24:11;;;;;;;;;;;;;;;4.28;85.91;98950.16;5000350;28;19921;-89
2022/01/03 19:26:36;;;;;;;;;;;;;;;4.33;86.11;98948.25;5003007;28;19918;-87
2022/01/03 19:29:05;;;;;;;;;;;;;;;4.34;86.02;98933.38;5000255;28;19918;-88
2022/01/03 19:31:31;;;;;;;;;;;;;;;4.35;85.81;98937.72;5018161;28;20292;-89
2022/01/03 19:39:24;;;;;;;;;;;;;;;4.40;85.17;98930.56;5000326;28;20017;-89
2022/01/03 19:41:50;;;;;;;;;;;;;;;4.43;85.07;98925.22;4999559;28;20017;-89
2022/01/03 19:44:16;;;;;;;;;;;;;;;4.41;84.91;98913.91;4998084;28;19980;-89
2022/01/03 19:46:44;;;;;;;;;;;;;;;4.43;84.82;98912.09;5007850;28;19917;-90
2022/01/03 19:49:09;;;;;;;;;;;;;;;4.47;84.65;98905.88;4999687;28;19933;-88
2022/01/03 19:51:36;;;;;;;;;;;;;;;4.48;84.37;98897.09;5000309;28;19917;-89
2022/01/03 19:54:02;;;;;;;;;;;;;;;4.51;84.26;98891.72;5000383;28;19972;-90
2022/01/03 19:56:28;;;;;;;;;;;;;;;4.52;84.19;98892.59;5000344;28;19961;-89
2022/01/03 19:58:53;;;;;;;;;;;;;;;4.55;84.19;98888.09;5000437;28;19921;-90
2022/01/03 20:01:18;;;;;;;;;;;;;;;4.59;84.06;98882.75;5002328;28;19922;-91
2022/01/03 20:03:43;;;;;;;;;;;;;;;4.59;84.02;98873.09;5001269;28;19921;-89
2022/01/03 20:06:09;;;;;;;;;;;;;;;4.60;83.95;98864.34;5000398;28;19921;-90
2022/01/03 20:08:34;;;;;;;;;;;;;;;4.62;83.83;98856.41;4999435;28;20372;-89
2022/01/03 20:10:59;;;;;;;;;;;;;;;4.66;83.81;98847.53;5000520;28;19920;-88
2022/01/03 20:13:25;;;;;;;;;;;;;;;4.69;83.81;98842.16;4998120;28;19917;-88
2022/01/03 20:15:51;;;;;;;;;;;;;;;4.69;83.78;98834.28;5002285;28;20834;-90
2022/01/03 20:18:16;;;;;;;;;;;;;;;4.75;83.90;98820.13;5001739;28;19964;-87
2022/01/03 20:20:45;;;;;;;;;;;;;;;4.74;83.82;98824.53;4998048;28;19918;-89
2022/01/03 20:23:12;;;;;;;;;;;;;;;4.78;83.88;98815.63;5001693;28;20380;-89
2022/01/03 20:25:37;;;;;;;;;;;;;;;4.79;83.81;98811.25;5000594;28;19925;-88
2022/01/03 20:28:03;;;;;;;;;;;;;;;4.80;83.91;98808.53;5003537;28;19917;-88
2022/01/03 20:30:33;;;;;;;;;;;;;;;4.84;83.84;98799.66;5004998;28;19922;-87
2022/01/03 20:32:58;;;;;;;;;;;;;;;4.87;83.97;98799.56;5003895;28;20331;-88
2022/01/03 20:35:24;;;;;;;;;;;;;;;4.89;83.92;98800.34;5003921;28;19913;-90
2022/01/03 20:37:49;;;;;;;;;;;;;;;4.91;83.98;98795.91;5005495;28;19961;-89